首页
METAR-TAF:

METAR-TAF

机场 :

伏尔加格勒, 俄罗斯

纬度: 48-47N, 经度: 044-22E, 海拔: 145米

当前天气观测

该预报发布于22分钟前的19:00 UTC
风速8节,风向西转西北
温度 -2°C
湿度 100%
气压 1025 hPa
能見度: 0150
冻雾

METAR: URWW 171900Z 29004MPS 0200 0150NE R24/0500N FZFG VV002 M02/M02 Q1025 R24/120065 NOSIG RMK QBB060 OBST OBSC

时间: 23:22 (19:22 UTC)

预报

该预报发布于2小时和23分钟前的16:59 UTC
预报有效从17日的 18点(UTC)到 18日的 03点(UTC)
风速6节,风向西转西北,有时为16节阵风
能見度: 0300
阴天层高于200英尺
冻雾
短暂存在
从 17日的 18点(UTC)到 18日的 03点(UTC)
风速6节,风向北转西北,有时为19节阵风
能見度: 3100
阴天层高于300英尺
(小) 冻, 毛毛雨, 轻雾

TAF: URWW 171659Z 1718/1803 30003G08MPS 0300 FZFG OVC002 TEMPO 1718/1803 34003G10MPS 3100 -FZDZ BR OVC003

超过4000个机场的气象观测和天气预报(METAR&TAF报告)。

可查询的气象台以黄色和红色小点在地图上表示。

将鼠标移到小点上方,可查看气象台名称。

然后点击查看天气观测和预报。

如需切换地图:点击带黑十字的绿色按钮放大地图;点击带横线的绿色按钮缩小地图;或者点击绿色箭头查看邻近地区的地图。


METAR-TAF: